Time;durP1;ratioP1;P1;durP2;ratioP2;P2;SDS_P1;SDS_P2;PMS_P1;PMS_P2;Temp;Humidity;BMP_temperature;BMP_pressure;BME280_temperature;BME280_humidity;BME280_pressure;Samples;Min_cycle;Max_cycle;Signal;HPM_P1;HPM_P2
2022/02/25 00:02:05;;;;;;;13.10;4.43;;;;;;;;;;5004345;28;20280;-78
2022/02/25 00:04:32;;;;;;;10.47;3.80;;;;;;;;;;4999854;28;20268;-78
2022/02/25 00:07:01;;;;;;;12.00;4.57;;;;;;;;;;4991922;28;20242;-77
2022/02/25 00:09:28;;;;;;;11.67;4.60;;;;;;;;;;4997301;28;20236;-77
2022/02/25 00:11:55;;;;;;;9.60;3.93;;;;;;;;;;5007077;28;20300;-77
2022/02/25 00:14:24;;;;;;;13.40;4.33;;;;;;;;;;5011259;28;20198;-78
2022/02/25 00:16:51;;;;;;;11.50;3.87;;;;;;;;;;5012614;28;20237;-77
2022/02/25 00:19:19;;;;;;;14.87;4.27;;;;;;;;;;5010425;28;20680;-78
2022/02/25 00:21:46;;;;;;;13.87;3.67;;;;;;;;;;5007941;28;20664;-78
2022/02/25 00:24:13;;;;;;;10.53;3.73;;;;;;;;;;5013918;28;20248;-78
2022/02/25 00:26:40;;;;;;;14.07;4.27;;;;;;;;;;5008320;28;20287;-77
2022/02/25 00:29:08;;;;;;;12.70;3.87;;;;;;;;;;5006617;28;20237;-78
2022/02/25 00:31:36;;;;;;;11.67;4.07;;;;;;;;;;5013700;28;20212;-78
2022/02/25 00:34:04;;;;;;;11.20;4.00;;;;;;;;;;5015358;28;20275;-77
2022/02/25 00:36:31;;;;;;;14.73;5.33;;;;;;;;;;5007452;28;20301;-77
2022/02/25 00:38:58;;;;;;;14.97;5.63;;;;;;;;;;4998869;28;20200;-77
2022/02/25 00:41:25;;;;;;;16.33;5.00;;;;;;;;;;5011730;28;20285;-78
2022/02/25 00:43:52;;;;;;;17.53;5.30;;;;;;;;;;4999797;28;20752;-78
2022/02/25 00:46:20;;;;;;;13.13;4.87;;;;;;;;;;5010831;28;20230;-77
2022/02/25 00:48:49;;;;;;;12.50;4.10;;;;;;;;;;5013318;28;20228;-77
2022/02/25 00:51:16;;;;;;;9.17;4.27;;;;;;;;;;5009227;28;20217;-77
2022/02/25 00:53:43;;;;;;;11.67;4.33;;;;;;;;;;5013367;28;20233;-77
2022/02/25 00:56:11;;;;;;;15.33;4.17;;;;;;;;;;5003633;28;20308;-77
2022/02/25 00:58:38;;;;;;;10.63;4.17;;;;;;;;;;5008135;28;20264;-77
2022/02/25 01:01:05;;;;;;;13.13;4.20;;;;;;;;;;4995541;28;20646;-77
2022/02/25 01:03:32;;;;;;;12.57;3.90;;;;;;;;;;5002619;28;20312;-77
2022/02/25 01:06:01;;;;;;;15.60;3.90;;;;;;;;;;5012468;28;20226;-77
2022/02/25 01:08:28;;;;;;;12.50;3.57;;;;;;;;;;5010767;28;20284;-77
2022/02/25 01:10:56;;;;;;;10.63;3.10;;;;;;;;;;5005663;28;20209;-78
2022/02/25 01:13:23;;;;;;;12.07;3.27;;;;;;;;;;5008949;28;20284;-77
2022/02/25 01:15:50;;;;;;;10.80;2.93;;;;;;;;;;5014179;28;20290;-77
2022/02/25 01:18:17;;;;;;;11.20;2.97;;;;;;;;;;5003415;28;20234;-78
2022/02/25 01:20:45;;;;;;;10.23;3.43;;;;;;;;;;5014285;28;20240;-77
2022/02/25 01:23:14;;;;;;;12.20;3.27;;;;;;;;;;5013778;28;20221;-78
2022/02/25 01:25:41;;;;;;;10.83;3.57;;;;;;;;;;5013943;28;20255;-77
2022/02/25 01:28:08;;;;;;;12.50;3.23;;;;;;;;;;5005334;28;20247;-78
2022/02/25 01:30:35;;;;;;;15.00;3.63;;;;;;;;;;4994766;28;20233;-78
2022/02/25 01:33:03;;;;;;;11.30;3.80;;;;;;;;;;5003677;28;20229;-78
2022/02/25 01:35:30;;;;;;;11.17;3.43;;;;;;;;;;5005513;28;20639;-77
2022/02/25 01:37:57;;;;;;;9.67;3.37;;;;;;;;;;5006849;28;20225;-77
2022/02/25 01:40:26;;;;;;;7.80;3.20;;;;;;;;;;5008389;28;20201;-77
2022/02/25 01:42:54;;;;;;;12.00;3.23;;;;;;;;;;5011100;28;20304;-77
2022/02/25 01:45:21;;;;;;;13.03;3.23;;;;;;;;;;5013394;28;20288;-77
2022/02/25 01:47:49;;;;;;;11.97;3.80;;;;;;;;;;5000663;28;20635;-78
2022/02/25 01:50:16;;;;;;;9.57;3.20;;;;;;;;;;5000915;28;20388;-78
2022/02/25 01:52:50;;;;;;;11.77;3.57;;;;;;;;;;4998658;28;20226;-78
2022/02/25 01:55:17;;;;;;;11.93;3.47;;;;;;;;;;5010137;28;20596;-78
2022/02/25 01:57:46;;;;;;;8.97;3.70;;;;;;;;;;5006649;28;20197;-78
2022/02/25 02:00:13;;;;;;;10.87;3.00;;;;;;;;;;5001508;28;20631;-77
2022/02/25 02:02:40;;;;;;;13.27;3.40;;;;;;;;;;4998957;28;20288;-77
2022/02/25 02:05:08;;;;;;;9.23;3.07;;;;;;;;;;5009863;28;20285;-77
2022/02/25 02:07:36;;;;;;;12.87;4.40;;;;;;;;;;5011346;28;20243;-77
2022/02/25 02:10:25;;;;;;;11.00;3.20;;;;;;;;;;5000439;28;20202;-78
2022/02/25 02:12:54;;;;;;;11.67;3.07;;;;;;;;;;5001552;28;20231;-77
2022/02/25 02:15:21;;;;;;;13.80;3.53;;;;;;;;;;5005998;28;20252;-77
2022/02/25 02:17:48;;;;;;;11.57;3.30;;;;;;;;;;5012522;28;20291;-78
2022/02/25 02:20:15;;;;;;;10.97;3.27;;;;;;;;;;5012932;28;20281;-77
2022/02/25 02:22:44;;;;;;;11.67;3.17;;;;;;;;;;5000752;28;20237;-77
2022/02/25 02:25:11;;;;;;;13.57;3.60;;;;;;;;;;5008047;28;20708;-77
2022/02/25 02:30:23;;;;;;;15.43;3.70;;;;;;;;;;5005269;28;20207;-77
2022/02/25 02:32:50;;;;;;;10.23;3.30;;;;;;;;;;5012821;28;20232;-77
2022/02/25 02:35:17;;;;;;;11.27;3.60;;;;;;;;;;5005750;28;20610;-77
2022/02/25 02:37:48;;;;;;;10.83;4.20;;;;;;;;;;5012532;28;20197;-77
2022/02/25 02:40:15;;;;;;;10.90;3.20;;;;;;;;;;5007160;28;20202;-77
2022/02/25 02:42:42;;;;;;;12.40;3.40;;;;;;;;;;5007261;28;20632;-77
2022/02/25 02:45:11;;;;;;;8.03;2.80;;;;;;;;;;5009192;28;20221;-78
2022/02/25 02:47:38;;;;;;;10.50;2.87;;;;;;;;;;5012789;28;20223;-78
2022/02/25 02:50:06;;;;;;;17.07;3.07;;;;;;;;;;5002133;28;20229;-78
2022/02/25 02:52:33;;;;;;;8.90;2.80;;;;;;;;;;4991623;28;20233;-77
2022/02/25 02:55:02;;;;;;;11.13;2.97;;;;;;;;;;4993782;28;20194;-78
2022/02/25 02:57:29;;;;;;;7.67;2.53;;;;;;;;;;4994328;28;20235;-77
2022/02/25 02:59:56;;;;;;;10.53;3.03;;;;;;;;;;5001465;28;20272;-78
2022/02/25 03:02:23;;;;;;;7.47;2.73;;;;;;;;;;5006400;28;20197;-78
2022/02/25 03:04:51;;;;;;;12.53;3.00;;;;;;;;;;4992779;28;20230;-77
2022/02/25 03:07:18;;;;;;;10.73;2.83;;;;;;;;;;4993265;28;20198;-77
2022/02/25 03:09:45;;;;;;;12.73;3.30;;;;;;;;;;5011496;28;20275;-78
2022/02/25 03:12:14;;;;;;;13.47;3.53;;;;;;;;;;5010928;28;20299;-78
2022/02/25 03:14:41;;;;;;;12.83;3.40;;;;;;;;;;5005503;28;20217;-78
2022/02/25 03:17:11;;;;;;;11.33;3.40;;;;;;;;;;4999653;28;20276;-78
2022/02/25 03:19:39;;;;;;;17.17;3.60;;;;;;;;;;5010118;28;20201;-78
2022/02/25 03:22:06;;;;;;;11.60;3.47;;;;;;;;;;5011887;28;20212;-77
2022/02/25 03:24:33;;;;;;;12.20;2.90;;;;;;;;;;5004774;28;20329;-77
2022/02/25 03:27:00;;;;;;;12.67;2.53;;;;;;;;;;5011161;28;20259;-77
2022/02/25 03:29:29;;;;;;;11.27;2.67;;;;;;;;;;5005710;28;20225;-77
2022/02/25 03:31:56;;;;;;;12.07;2.53;;;;;;;;;;5000430;28;20215;-78
2022/02/25 03:34:23;;;;;;;16.27;3.07;;;;;;;;;;5006753;28;20221;-78
2022/02/25 03:36:51;;;;;;;10.77;2.67;;;;;;;;;;5009304;28;20221;-78
2022/02/25 03:39:18;;;;;;;15.70;2.60;;;;;;;;;;5008482;28;20202;-78
2022/02/25 03:41:45;;;;;;;11.20;2.57;;;;;;;;;;5011034;28;20284;-77
2022/02/25 03:44:13;;;;;;;10.73;2.90;;;;;;;;;;5008085;28;20226;-77
2022/02/25 03:46:41;;;;;;;9.27;2.40;;;;;;;;;;5000277;28;20224;-77
2022/02/25 03:49:09;;;;;;;11.13;2.60;;;;;;;;;;5012068;28;20287;-77
2022/02/25 03:51:36;;;;;;;10.90;2.47;;;;;;;;;;5012254;28;20284;-78
2022/02/25 03:54:03;;;;;;;12.13;2.33;;;;;;;;;;5013419;28;20211;-77
2022/02/25 03:56:30;;;;;;;14.23;3.03;;;;;;;;;;5006619;28;20292;-77
2022/02/25 03:58:57;;;;;;;9.20;2.07;;;;;;;;;;5014754;28;20281;-77
2022/02/25 04:01:25;;;;;;;14.73;2.50;;;;;;;;;;5013576;28;20308;-78
2022/02/25 04:03:54;;;;;;;11.33;2.73;;;;;;;;;;5013628;28;20255;-77
2022/02/25 04:06:21;;;;;;;9.20;1.93;;;;;;;;;;5010403;28;20208;-78
2022/02/25 04:08:48;;;;;;;10.07;1.70;;;;;;;;;;4996363;28;20288;-77
2022/02/25 04:11:15;;;;;;;8.83;2.10;;;;;;;;;;5010049;28;20209;-77
2022/02/25 04:13:43;;;;;;;9.17;2.40;;;;;;;;;;5002163;28;20223;-77
2022/02/25 04:16:10;;;;;;;11.27;2.57;;;;;;;;;;5009382;28;20221;-77
2022/02/25 04:18:37;;;;;;;11.67;2.80;;;;;;;;;;5005435;28;20236;-77
2022/02/25 04:21:06;;;;;;;12.50;3.60;;;;;;;;;;4997178;28;20237;-77
2022/02/25 04:23:33;;;;;;;10.20;3.63;;;;;;;;;;4994426;28;20285;-77
2022/02/25 04:26:00;;;;;;;14.07;4.07;;;;;;;;;;4995905;28;20237;-77
2022/02/25 04:28:27;;;;;;;13.57;4.20;;;;;;;;;;5012652;28;20284;-78
2022/02/25 04:30:54;;;;;;;15.97;4.67;;;;;;;;;;5008878;28;20309;-77
2022/02/25 04:33:21;;;;;;;13.20;4.40;;;;;;;;;;5014121;28;20284;-77
2022/02/25 04:35:49;;;;;;;12.13;4.10;;;;;;;;;;5012908;28;20232;-77
2022/02/25 04:38:17;;;;;;;17.33;5.33;;;;;;;;;;4998755;28;20284;-78
2022/02/25 04:40:45;;;;;;;17.30;4.13;;;;;;;;;;5008317;28;20243;-77
2022/02/25 04:43:12;;;;;;;13.57;4.37;;;;;;;;;;5006783;28;20239;-78
2022/02/25 04:45:39;;;;;;;13.97;3.10;;;;;;;;;;5013505;28;20256;-77
2022/02/25 04:48:07;;;;;;;9.90;2.30;;;;;;;;;;5010040;28;20200;-78
2022/02/25 04:50:34;;;;;;;12.83;2.00;;;;;;;;;;5012434;28;20291;-78
2022/02/25 04:53:01;;;;;;;9.90;2.00;;;;;;;;;;5012859;28;20220;-77
2022/02/25 04:55:30;;;;;;;9.80;1.93;;;;;;;;;;5013488;28;20229;-77
2022/02/25 04:57:57;;;;;;;8.23;1.80;;;;;;;;;;4968479;28;1252615;-77
2022/02/25 05:00:24;;;;;;;9.27;1.87;;;;;;;;;;5001019;28;20205;-77
2022/02/25 05:02:51;;;;;;;16.03;2.07;;;;;;;;;;5011254;28;20296;-77
2022/02/25 05:05:18;;;;;;;7.63;1.90;;;;;;;;;;4995278;28;20264;-77
2022/02/25 05:07:46;;;;;;;7.37;1.57;;;;;;;;;;5008792;28;20201;-77
2022/02/25 05:10:13;;;;;;;8.23;2.00;;;;;;;;;;5014142;28;20204;-78
2022/02/25 05:12:42;;;;;;;7.00;1.73;;;;;;;;;;5000444;28;20645;-77
2022/02/25 05:20:44;;;;;;;8.57;1.87;;;;;;;;;;4934709;29;20204;-77
2022/02/25 05:23:12;;;;;;;8.90;1.90;;;;;;;;;;4934316;29;20308;-77
2022/02/25 05:25:39;;;;;;;10.63;2.47;;;;;;;;;;4934063;29;20228;-77
2022/02/25 05:28:08;;;;;;;13.10;3.00;;;;;;;;;;4934016;29;20197;-77
2022/02/25 05:30:36;;;;;;;10.23;3.03;;;;;;;;;;4933386;29;20234;-77
2022/02/25 05:33:04;;;;;;;10.93;2.60;;;;;;;;;;4934175;29;20287;-77
2022/02/25 05:35:31;;;;;;;14.10;3.00;;;;;;;;;;4933077;29;20196;-77
2022/02/25 05:37:58;;;;;;;13.27;2.80;;;;;;;;;;4934286;29;20203;-77
2022/02/25 05:40:25;;;;;;;12.47;2.60;;;;;;;;;;4933937;29;20250;-77
2022/02/25 05:42:53;;;;;;;9.13;2.57;;;;;;;;;;4933791;29;20707;-77
2022/02/25 05:45:21;;;;;;;8.07;2.37;;;;;;;;;;4933695;29;20279;-77
2022/02/25 05:47:49;;;;;;;9.10;2.40;;;;;;;;;;4933096;29;20207;-77
2022/02/25 05:50:17;;;;;;;13.70;3.00;;;;;;;;;;4932692;29;20748;-77
2022/02/25 05:52:45;;;;;;;12.93;2.47;;;;;;;;;;4933594;29;20232;-77
2022/02/25 05:55:12;;;;;;;6.73;2.27;;;;;;;;;;4993562;28;20204;-77
2022/02/25 05:57:39;;;;;;;14.70;2.30;;;;;;;;;;5004581;28;20289;-77
2022/02/25 06:00:08;;;;;;;15.90;4.90;;;;;;;;;;5003235;28;20280;-77
2022/02/25 06:02:36;;;;;;;16.10;6.00;;;;;;;;;;4999457;28;20252;-77
2022/02/25 06:05:04;;;;;;;12.67;4.03;;;;;;;;;;4996843;28;20249;-77
2022/02/25 06:07:31;;;;;;;15.13;3.70;;;;;;;;;;5013181;28;20229;-77
2022/02/25 06:09:59;;;;;;;13.83;3.73;;;;;;;;;;5005218;28;20636;-77
2022/02/25 06:12:26;;;;;;;9.80;2.83;;;;;;;;;;4993689;28;20230;-77
2022/02/25 06:14:53;;;;;;;14.30;2.97;;;;;;;;;;5000466;28;20244;-77
2022/02/25 06:17:20;;;;;;;13.50;3.27;;;;;;;;;;4993821;28;20292;-78
2022/02/25 06:19:49;;;;;;;12.93;3.33;;;;;;;;;;5011652;28;20201;-78
2022/02/25 06:22:16;;;;;;;9.37;3.23;;;;;;;;;;5001507;28;20283;-77
2022/02/25 06:24:44;;;;;;;12.13;3.20;;;;;;;;;;5002393;28;20209;-77
2022/02/25 06:27:11;;;;;;;11.13;3.03;;;;;;;;;;4994390;28;20298;-77
2022/02/25 06:29:38;;;;;;;12.40;3.60;;;;;;;;;;4997493;28;20228;-78
2022/02/25 06:32:05;;;;;;;12.17;3.53;;;;;;;;;;5003363;28;20224;-78
2022/02/25 06:34:33;;;;;;;12.97;3.87;;;;;;;;;;5001200;28;20276;-77
2022/02/25 06:37:02;;;;;;;11.77;3.87;;;;;;;;;;5001100;28;20238;-78
2022/02/25 06:39:29;;;;;;;13.30;3.83;;;;;;;;;;5003783;28;20208;-77
2022/02/25 06:41:56;;;;;;;12.90;3.83;;;;;;;;;;5007232;28;20244;-77
2022/02/25 06:44:23;;;;;;;10.13;4.17;;;;;;;;;;5000374;28;20304;-77
2022/02/25 06:46:50;;;;;;;12.47;4.20;;;;;;;;;;4995400;28;20284;-77
2022/02/25 06:49:18;;;;;;;12.13;4.00;;;;;;;;;;5004643;28;20553;-76
2022/02/25 06:51:45;;;;;;;10.27;3.57;;;;;;;;;;4996233;28;20212;-78
2022/02/25 06:54:13;;;;;;;12.90;3.97;;;;;;;;;;4992659;28;20297;-77
2022/02/25 06:56:41;;;;;;;13.30;4.00;;;;;;;;;;4992477;28;20254;-77
2022/02/25 06:59:08;;;;;;;7.67;3.83;;;;;;;;;;4997225;28;20325;-77
2022/02/25 07:01:37;;;;;;;12.60;4.30;;;;;;;;;;5007635;28;20557;-77
2022/02/25 07:04:04;;;;;;;12.17;4.47;;;;;;;;;;5008888;28;20194;-77
2022/02/25 07:06:33;;;;;;;8.70;3.83;;;;;;;;;;4995342;28;20321;-77
2022/02/25 07:09:01;;;;;;;9.40;3.77;;;;;;;;;;5006094;28;20203;-77
2022/02/25 07:11:29;;;;;;;15.37;3.30;;;;;;;;;;5011103;28;20228;-77
2022/02/25 07:13:56;;;;;;;13.63;4.07;;;;;;;;;;5011816;28;20199;-78
2022/02/25 07:16:24;;;;;;;10.33;3.50;;;;;;;;;;5004598;28;20275;-77
2022/02/25 07:18:51;;;;;;;11.13;3.40;;;;;;;;;;5011333;28;20249;-77
2022/02/25 07:21:18;;;;;;;11.10;2.93;;;;;;;;;;5008286;28;20714;-77
2022/02/25 07:23:45;;;;;;;12.00;2.90;;;;;;;;;;4994998;28;20706;-78
2022/02/25 07:26:12;;;;;;;10.80;3.50;;;;;;;;;;4992104;28;20309;-77
2022/02/25 07:28:41;;;;;;;14.50;3.30;;;;;;;;;;5005542;28;20358;-78
2022/02/25 07:31:08;;;;;;;9.20;3.20;;;;;;;;;;5010915;28;20283;-77
2022/02/25 07:33:35;;;;;;;7.33;3.83;;;;;;;;;;5011276;28;20236;-77
2022/02/25 07:36:03;;;;;;;12.70;3.27;;;;;;;;;;5012068;28;20295;-77
2022/02/25 07:38:30;;;;;;;10.27;3.17;;;;;;;;;;4999567;28;20288;-78
2022/02/25 07:40:57;;;;;;;13.33;3.60;;;;;;;;;;4992257;28;20646;-78
2022/02/25 07:43:24;;;;;;;9.03;3.40;;;;;;;;;;5007969;28;20237;-78
2022/02/25 07:45:54;;;;;;;11.00;5.03;;;;;;;;;;4999675;28;20594;-78
2022/02/25 07:48:21;;;;;;;14.30;6.40;;;;;;;;;;5011400;28;20225;-78
2022/02/25 07:50:49;;;;;;;12.20;4.83;;;;;;;;;;5012145;28;20606;-77
2022/02/25 07:53:16;;;;;;;12.20;4.33;;;;;;;;;;5000856;28;20239;-77
2022/02/25 07:55:44;;;;;;;10.20;3.87;;;;;;;;;;5003612;28;20294;-78
2022/02/25 07:58:11;;;;;;;9.17;2.80;;;;;;;;;;5002531;28;20318;-78
2022/02/25 08:00:38;;;;;;;9.20;2.47;;;;;;;;;;5011763;28;20236;-78
2022/02/25 08:03:07;;;;;;;7.63;2.70;;;;;;;;;;5012214;28;20215;-78
2022/02/25 08:05:35;;;;;;;11.73;2.90;;;;;;;;;;5011628;28;20684;-78
2022/02/25 08:08:02;;;;;;;8.80;2.80;;;;;;;;;;5012411;28;20323;-78
2022/02/25 08:10:30;;;;;;;9.50;2.83;;;;;;;;;;5012253;28;20201;-78
2022/02/25 08:12:57;;;;;;;5.87;2.63;;;;;;;;;;5012533;28;20197;-78
2022/02/25 08:15:25;;;;;;;8.20;2.90;;;;;;;;;;5011196;28;20224;-78
2022/02/25 08:17:52;;;;;;;10.37;3.10;;;;;;;;;;4996036;28;20232;-78
2022/02/25 08:20:20;;;;;;;9.23;3.20;;;;;;;;;;4992339;28;20212;-78
2022/02/25 08:22:48;;;;;;;9.13;2.63;;;;;;;;;;4996302;28;20232;-78
2022/02/25 08:25:15;;;;;;;6.70;2.47;;;;;;;;;;5011918;28;20696;-78
2022/02/25 08:27:43;;;;;;;7.93;3.00;;;;;;;;;;5000577;28;20202;-78
2022/02/25 08:30:14;;;;;;;9.25;3.22;;;;;;;;;;4992082;28;20213;-78
2022/02/25 08:32:42;;;;;;;5.82;2.42;;;;;;;;;;4992137;28;20202;-78
2022/02/25 08:35:10;;;;;;;8.07;2.90;;;;;;;;;;4992580;28;20201;-78
2022/02/25 08:37:38;;;;;;;8.35;2.83;;;;;;;;;;4993100;28;20206;-78
2022/02/25 08:40:06;;;;;;;5.97;2.33;;;;;;;;;;4996447;28;20233;-78
2022/02/25 08:42:35;;;;;;;8.52;2.42;;;;;;;;;;4995324;28;20202;-78
2022/02/25 08:45:03;;;;;;;5.30;2.03;;;;;;;;;;4995708;28;20221;-78
2022/02/25 08:47:30;;;;;;;6.13;2.45;;;;;;;;;;4998715;28;20220;-78
2022/02/25 08:49:57;;;;;;;8.43;2.83;;;;;;;;;;5014844;28;20207;-78
2022/02/25 08:52:24;;;;;;;5.35;2.42;;;;;;;;;;5015249;28;20295;-79
2022/02/25 08:54:53;;;;;;;7.75;2.85;;;;;;;;;;5015218;28;20297;-79
2022/02/25 08:57:20;;;;;;;5.07;2.47;;;;;;;;;;5014856;28;20201;-79
2022/02/25 08:59:47;;;;;;;6.38;2.78;;;;;;;;;;5014725;28;20288;-78
2022/02/25 09:02:15;;;;;;;6.15;2.75;;;;;;;;;;5015146;28;20212;-79
2022/02/25 09:04:43;;;;;;;6.85;2.38;;;;;;;;;;5015120;28;20251;-79
2022/02/25 09:07:10;;;;;;;7.55;2.40;;;;;;;;;;5014985;28;20268;-78
2022/02/25 09:09:37;;;;;;;7.15;2.30;;;;;;;;;;5014572;28;20205;-79
2022/02/25 09:12:07;;;;;;;6.93;1.90;;;;;;;;;;5014262;28;20288;-79
2022/02/25 09:14:34;;;;;;;5.70;2.20;;;;;;;;;;5014504;28;20200;-79
2022/02/25 09:17:02;;;;;;;6.50;2.53;;;;;;;;;;5014481;28;20289;-79
2022/02/25 09:19:29;;;;;;;7.95;2.90;;;;;;;;;;5014160;28;20201;-79
2022/02/25 09:21:56;;;;;;;7.05;3.20;;;;;;;;;;5014272;28;20228;-79
2022/02/25 09:24:24;;;;;;;5.57;3.00;;;;;;;;;;5014767;28;20244;-79
2022/02/25 09:26:51;;;;;;;7.70;3.15;;;;;;;;;;5013327;28;20308;-79
2022/02/25 09:29:20;;;;;;;6.32;2.42;;;;;;;;;;5014362;28;20289;-79
2022/02/25 09:31:47;;;;;;;6.30;3.47;;;;;;;;;;5014442;28;20300;-79
2022/02/25 09:34:14;;;;;;;7.47;3.63;;;;;;;;;;5006253;28;20237;-79
2022/02/25 09:36:41;;;;;;;9.80;2.22;;;;;;;;;;4994469;28;20233;-79
2022/02/25 09:39:11;;;;;;;7.57;3.33;;;;;;;;;;4994374;28;20240;-79
2022/02/25 09:41:38;;;;;;;7.10;3.10;;;;;;;;;;4993961;28;20264;-79
2022/02/25 09:44:06;;;;;;;7.57;3.05;;;;;;;;;;4994418;28;20209;-79
2022/02/25 09:46:35;;;;;;;8.85;3.20;;;;;;;;;;4994369;28;20336;-79
2022/02/25 09:49:02;;;;;;;8.35;3.10;;;;;;;;;;4995858;28;20656;-78
2022/02/25 09:51:30;;;;;;;4.68;2.00;;;;;;;;;;5010035;28;20288;-79
2022/02/25 09:53:57;;;;;;;6.78;1.98;;;;;;;;;;4998469;28;20352;-79
2022/02/25 09:56:25;;;;;;;7.07;2.25;;;;;;;;;;4995334;28;20237;-79
2022/02/25 09:58:52;;;;;;;5.60;1.80;;;;;;;;;;5007293;28;20232;-79
2022/02/25 10:01:20;;;;;;;6.57;1.77;;;;;;;;;;4996056;28;20569;-79
2022/02/25 10:03:53;;;;;;;5.78;2.03;;;;;;;;;;4998461;28;20229;-79
2022/02/25 10:06:30;;;;;;;5.53;2.05;;;;;;;;;;4999947;28;20595;-79
2022/02/25 10:08:57;;;;;;;6.53;2.10;;;;;;;;;;5005755;28;20243;-79
2022/02/25 10:11:25;;;;;;;6.78;1.83;;;;;;;;;;4992609;28;20718;-78
2022/02/25 10:14:10;;;;;;;4.38;1.80;;;;;;;;;;5008632;28;20329;-79
2022/02/25 10:16:37;;;;;;;4.68;1.90;;;;;;;;;;4994494;28;20197;-80
2022/02/25 10:19:06;;;;;;;9.48;2.08;;;;;;;;;;5006068;28;20197;-78
2022/02/25 10:21:33;;;;;;;7.68;1.75;;;;;;;;;;4995538;28;20716;-79
2022/02/25 10:24:08;;;;;;;6.90;2.10;;;;;;;;;;5006961;28;20230;-79
2022/02/25 10:26:38;;;;;;;8.02;2.00;;;;;;;;;;5000335;28;20267;-79
2022/02/25 10:29:06;;;;;;;6.78;2.13;;;;;;;;;;5010974;28;20205;-79
2022/02/25 10:31:34;;;;;;;5.43;2.10;;;;;;;;;;5000829;28;20587;-79
2022/02/25 10:34:02;;;;;;;7.53;1.95;;;;;;;;;;4992118;28;20212;-79
2022/02/25 10:36:37;;;;;;;4.85;1.60;;;;;;;;;;4998203;28;20304;-79
2022/02/25 10:39:07;;;;;;;5.72;1.83;;;;;;;;;;5009094;28;20231;-79
2022/02/25 10:41:34;;;;;;;8.57;2.17;;;;;;;;;;5003842;28;20292;-79
2022/02/25 10:44:01;;;;;;;9.60;1.92;;;;;;;;;;5009370;28;20206;-79
2022/02/25 10:46:28;;;;;;;8.18;2.17;;;;;;;;;;5006063;28;20249;-79
2022/02/25 10:49:04;;;;;;;6.05;1.88;;;;;;;;;;4998205;28;20287;-79
2022/02/25 10:51:35;;;;;;;7.90;2.15;;;;;;;;;;5011096;28;20247;-79
2022/02/25 10:54:02;;;;;;;5.40;1.83;;;;;;;;;;5010370;28;20201;-79
2022/02/25 10:56:29;;;;;;;6.60;1.95;;;;;;;;;;4993906;28;20304;-79
2022/02/25 10:58:57;;;;;;;5.20;1.90;;;;;;;;;;4992456;28;20324;-80
2022/02/25 11:01:26;;;;;;;7.38;1.77;;;;;;;;;;4993601;28;20682;-79
2022/02/25 11:04:01;;;;;;;7.03;2.20;;;;;;;;;;5012335;28;20236;-79
2022/02/25 11:06:30;;;;;;;10.40;2.03;;;;;;;;;;4992994;28;20225;-79
2022/02/25 11:08:58;;;;;;;6.43;1.95;;;;;;;;;;5010673;28;20205;-79
2022/02/25 11:11:26;;;;;;;7.30;2.00;;;;;;;;;;5012796;28;20205;-79
2022/02/25 11:13:53;;;;;;;6.65;2.25;;;;;;;;;;5012483;28;20688;-78
2022/02/25 11:16:21;;;;;;;10.93;2.63;;;;;;;;;;5012336;28;20289;-79
2022/02/25 11:18:49;;;;;;;6.78;1.83;;;;;;;;;;5012733;28;20312;-78
2022/02/25 11:21:16;;;;;;;9.43;2.65;;;;;;;;;;5002817;28;20209;-78
2022/02/25 11:23:44;;;;;;;7.68;2.00;;;;;;;;;;4992484;28;20201;-79
2022/02/25 11:26:13;;;;;;;7.43;1.95;;;;;;;;;;5010598;28;20315;-78
2022/02/25 11:28:42;;;;;;;8.20;2.13;;;;;;;;;;5004917;28;20210;-78
2022/02/25 11:31:13;;;;;;;8.43;2.13;;;;;;;;;;4999468;28;20205;-78
2022/02/25 11:33:41;;;;;;;9.80;2.35;;;;;;;;;;4996389;28;20236;-79
2022/02/25 11:36:09;;;;;;;9.93;2.10;;;;;;;;;;4998621;28;21717;-79
2022/02/25 11:38:38;;;;;;;9.20;2.03;;;;;;;;;;5011378;28;20711;-79
2022/02/25 11:41:06;;;;;;;7.47;2.13;;;;;;;;;;4994083;28;20206;-79
2022/02/25 11:43:36;;;;;;;9.32;1.90;;;;;;;;;;5003489;28;20225;-79
2022/02/25 11:46:04;;;;;;;8.95;2.25;;;;;;;;;;5009155;28;20233;-79
2022/02/25 11:48:38;;;;;;;7.88;2.00;;;;;;;;;;5000667;28;20225;-79
2022/02/25 11:51:07;;;;;;;6.00;1.77;;;;;;;;;;5003408;28;20287;-79
2022/02/25 11:53:34;;;;;;;8.82;1.85;;;;;;;;;;5010894;28;20200;-79
2022/02/25 11:56:15;;;;;;;12.27;2.10;;;;;;;;;;5012108;28;20292;-79
2022/02/25 11:58:49;;;;;;;7.03;2.00;;;;;;;;;;5001210;28;20360;-79
2022/02/25 12:01:17;;;;;;;8.80;1.88;;;;;;;;;;5002653;28;20200;-79
2022/02/25 12:04:03;;;;;;;9.88;1.73;;;;;;;;;;5001403;28;20236;-79
2022/02/25 12:06:31;;;;;;;10.55;2.20;;;;;;;;;;4992259;28;20272;-79
2022/02/25 12:09:00;;;;;;;9.20;2.03;;;;;;;;;;5000724;28;20288;-79
2022/02/25 12:11:34;;;;;;;8.05;2.17;;;;;;;;;;5011887;28;20201;-79
2022/02/25 12:14:04;;;;;;;6.90;1.98;;;;;;;;;;5015228;28;20207;-79
2022/02/25 12:16:34;;;;;;;10.30;2.05;;;;;;;;;;5013439;28;20201;-79
2022/02/25 12:19:08;;;;;;;8.00;1.75;;;;;;;;;;5000327;28;20201;-79
2022/02/25 12:21:39;;;;;;;8.32;2.17;;;;;;;;;;5003786;28;20268;-79
2022/02/25 12:24:10;;;;;;;5.15;1.70;;;;;;;;;;5008305;28;20335;-79
2022/02/25 12:26:39;;;;;;;6.38;1.60;;;;;;;;;;5009614;28;20230;-79
2022/02/25 12:29:16;;;;;;;6.00;1.73;;;;;;;;;;5011390;28;20699;-79
2022/02/25 12:31:44;;;;;;;5.70;1.85;;;;;;;;;;5009944;28;20211;-79
2022/02/25 12:34:19;;;;;;;6.53;1.52;;;;;;;;;;4997924;28;20283;-79
2022/02/25 12:36:46;;;;;;;8.70;1.95;;;;;;;;;;5004775;28;20197;-79
2022/02/25 12:39:18;;;;;;;7.72;1.90;;;;;;;;;;5009607;28;20228;-79
2022/02/25 12:41:46;;;;;;;6.20;1.92;;;;;;;;;;4995196;28;20284;-79
2022/02/25 12:44:16;;;;;;;8.77;2.20;;;;;;;;;;5000071;28;20276;-79
2022/02/25 12:46:44;;;;;;;6.53;1.90;;;;;;;;;;5014589;28;20261;-79
2022/02/25 12:49:12;;;;;;;4.88;1.73;;;;;;;;;;5007233;28;20222;-79
2022/02/25 12:51:40;;;;;;;10.55;2.13;;;;;;;;;;5004799;28;20251;-79
2022/02/25 12:54:08;;;;;;;9.13;1.80;;;;;;;;;;5004466;28;20292;-79
2022/02/25 12:56:36;;;;;;;8.52;2.13;;;;;;;;;;5013098;28;20195;-79
2022/02/25 12:59:05;;;;;;;9.00;1.95;;;;;;;;;;5004025;28;20261;-79
2022/02/25 13:01:34;;;;;;;10.65;2.17;;;;;;;;;;5001297;28;20229;-79
2022/02/25 13:04:04;;;;;;;10.15;2.00;;;;;;;;;;5005470;28;20201;-79
2022/02/25 13:06:34;;;;;;;8.65;1.73;;;;;;;;;;5010095;28;20217;-79
2022/02/25 13:09:02;;;;;;;9.52;1.80;;;;;;;;;;4994815;28;20680;-79
2022/02/25 13:11:29;;;;;;;11.30;1.85;;;;;;;;;;5011745;28;20236;-78
2022/02/25 13:14:12;;;;;;;11.80;2.00;;;;;;;;;;5013719;28;20758;-79
2022/02/25 13:16:41;;;;;;;12.43;2.00;;;;;;;;;;4994638;28;20200;-78
2022/02/25 13:19:20;;;;;;;11.67;1.97;;;;;;;;;;4994054;28;20201;-79
2022/02/25 13:21:47;;;;;;;11.67;2.23;;;;;;;;;;4999544;28;20201;-77
2022/02/25 13:24:17;;;;;;;8.07;2.00;;;;;;;;;;5010928;28;20236;-79
2022/02/25 13:26:44;;;;;;;8.70;2.13;;;;;;;;;;5008050;28;20329;-79
2022/02/25 13:29:12;;;;;;;8.30;1.83;;;;;;;;;;5001941;28;20226;-80
2022/02/25 13:31:40;;;;;;;11.10;1.87;;;;;;;;;;4997843;28;20947;-79
2022/02/25 13:34:07;;;;;;;7.30;1.58;;;;;;;;;;4997034;28;20285;-79
2022/02/25 13:36:36;;;;;;;9.50;2.10;;;;;;;;;;5005168;28;20288;-79
2022/02/25 13:39:03;;;;;;;7.53;2.22;;;;;;;;;;5007598;28;20314;-79
2022/02/25 13:41:34;;;;;;;8.23;1.98;;;;;;;;;;5000098;28;20288;-79
2022/02/25 13:44:11;;;;;;;6.43;1.75;;;;;;;;;;4999651;28;20201;-79
2022/02/25 13:46:46;;;;;;;9.18;2.13;;;;;;;;;;5009407;28;20217;-79
2022/02/25 13:54:45;;;;;;;11.80;2.13;;;;;;;;;;5012283;28;20259;-79
2022/02/25 13:57:14;;;;;;;6.60;1.87;;;;;;;;;;5001023;28;20208;-79
2022/02/25 13:59:43;;;;;;;10.37;2.20;;;;;;;;;;5000465;28;20300;-78
2022/02/25 14:02:12;;;;;;;8.70;1.80;;;;;;;;;;4999503;28;20210;-79
2022/02/25 14:04:40;;;;;;;9.20;1.90;;;;;;;;;;5003551;28;20634;-79
2022/02/25 14:07:08;;;;;;;8.77;1.90;;;;;;;;;;4998067;28;20304;-78
2022/02/25 14:09:37;;;;;;;8.20;1.97;;;;;;;;;;5005268;28;20245;-78
2022/02/25 14:12:06;;;;;;;11.17;2.33;;;;;;;;;;5009112;28;20288;-79
2022/02/25 14:14:34;;;;;;;10.97;1.93;;;;;;;;;;4998304;28;20324;-79
2022/02/25 14:17:01;;;;;;;7.57;1.70;;;;;;;;;;5008435;28;20690;-79
2022/02/25 14:19:30;;;;;;;8.30;2.13;;;;;;;;;;5004340;28;20206;-79
2022/02/25 14:21:57;;;;;;;10.23;2.17;;;;;;;;;;5001258;28;20245;-79
2022/02/25 14:24:26;;;;;;;14.70;2.17;;;;;;;;;;5012690;28;20225;-79
2022/02/25 14:27:10;;;;;;;14.63;2.33;;;;;;;;;;5003650;28;20244;-78
2022/02/25 14:29:38;;;;;;;8.57;1.83;;;;;;;;;;5004653;28;20687;-79
2022/02/25 14:32:06;;;;;;;7.33;1.80;;;;;;;;;;4997460;28;20202;-78
2022/02/25 14:34:38;;;;;;;12.00;2.57;;;;;;;;;;4998812;28;20197;-78
2022/02/25 14:37:06;;;;;;;10.60;1.77;;;;;;;;;;4999673;28;20244;-78
2022/02/25 14:39:33;;;;;;;8.47;1.73;;;;;;;;;;5012825;28;20293;-78
2022/02/25 14:42:00;;;;;;;13.17;2.10;;;;;;;;;;4999675;28;20669;-79
2022/02/25 14:44:28;;;;;;;11.50;2.13;;;;;;;;;;4992835;28;20638;-79
2022/02/25 14:46:55;;;;;;;9.97;2.10;;;;;;;;;;5012158;28;20240;-78
2022/02/25 14:49:22;;;;;;;10.83;2.27;;;;;;;;;;5012421;28;20262;-78
2022/02/25 14:51:51;;;;;;;10.10;1.70;;;;;;;;;;5012134;28;20205;-79
2022/02/25 14:54:19;;;;;;;9.53;1.97;;;;;;;;;;4998360;28;20300;-79
2022/02/25 14:56:47;;;;;;;11.57;2.07;;;;;;;;;;4997109;28;20284;-79